sensor_id;sensor_type;location;lat;lon;timestamp;temperature;humidity
53053;DHT22;38934;52.690;6.184;2022-11-20T00:01:35;-2.70;99.90
53053;DHT22;38934;52.690;6.184;2022-11-20T00:04:00;-2.70;99.90
53053;DHT22;38934;52.690;6.184;2022-11-20T00:06:27;-2.70;99.90
53053;DHT22;38934;52.690;6.184;2022-11-20T00:08:56;-2.70;99.90
53053;DHT22;38934;52.690;6.184;2022-11-20T00:11:23;-2.70;99.90
53053;DHT22;38934;52.690;6.184;2022-11-20T00:13:50;-2.70;99.90
53053;DHT22;38934;52.690;6.184;2022-11-20T00:16:17;-2.70;99.90
53053;DHT22;38934;52.690;6.184;2022-11-20T00:18:43;-2.70;99.90
53053;DHT22;38934;52.690;6.184;2022-11-20T00:21:10;-2.70;99.90
53053;DHT22;38934;52.690;6.184;2022-11-20T00:23:36;-2.70;99.90
53053;DHT22;38934;52.690;6.184;2022-11-20T00:26:02;-2.60;99.90
53053;DHT22;38934;52.690;6.184;2022-11-20T00:28:28;-2.80;99.90
53053;DHT22;38934;52.690;6.184;2022-11-20T00:31:00;-2.80;99.90
53053;DHT22;38934;52.690;6.184;2022-11-20T00:33:25;-2.80;99.90
53053;DHT22;38934;52.690;6.184;2022-11-20T00:35:50;-2.80;99.90
53053;DHT22;38934;52.690;6.184;2022-11-20T00:38:16;-2.80;99.90
53053;DHT22;38934;52.690;6.184;2022-11-20T00:40:41;-2.90;99.90
53053;DHT22;38934;52.690;6.184;2022-11-20T00:43:07;-2.90;99.90
53053;DHT22;38934;52.690;6.184;2022-11-20T00:45:32;-2.90;99.90
53053;DHT22;38934;52.690;6.184;2022-11-20T00:47:58;-2.80;99.90
53053;DHT22;38934;52.690;6.184;2022-11-20T00:50:23;-2.90;99.90
53053;DHT22;38934;52.690;6.184;2022-11-20T00:52:49;-3.00;99.90
53053;DHT22;38934;52.690;6.184;2022-11-20T00:55:14;-3.00;99.90
53053;DHT22;38934;52.690;6.184;2022-11-20T00:57:40;-1.90;99.90
53053;DHT22;38934;52.690;6.184;2022-11-20T01:00:05;-2.80;99.90
53053;DHT22;38934;52.690;6.184;2022-11-20T01:02:32;-3.00;99.90
53053;DHT22;38934;52.690;6.184;2022-11-20T01:04:58;-3.00;99.90
53053;DHT22;38934;52.690;6.184;2022-11-20T01:07:23;-3.00;99.90
53053;DHT22;38934;52.690;6.184;2022-11-20T01:09:49;-2.10;99.90
53053;DHT22;38934;52.690;6.184;2022-11-20T01:12:14;-3.00;99.90
53053;DHT22;38934;52.690;6.184;2022-11-20T01:14:40;-3.00;99.90
53053;DHT22;38934;52.690;6.184;2022-11-20T01:17:05;-3.10;99.90
53053;DHT22;38934;52.690;6.184;2022-11-20T01:19:31;-3.20;99.90
53053;DHT22;38934;52.690;6.184;2022-11-20T01:21:56;-2.90;99.90
53053;DHT22;38934;52.690;6.184;2022-11-20T01:24:22;-3.20;99.90
53053;DHT22;38934;52.690;6.184;2022-11-20T01:26:48;-3.20;99.90
53053;DHT22;38934;52.690;6.184;2022-11-20T01:29:16;-3.30;99.90
53053;DHT22;38934;52.690;6.184;2022-11-20T01:31:42;-3.30;99.90
53053;DHT22;38934;52.690;6.184;2022-11-20T01:34:15;-3.30;99.90
53053;DHT22;38934;52.690;6.184;2022-11-20T01:36:41;-3.30;99.90
53053;DHT22;38934;52.690;6.184;2022-11-20T01:39:12;-3.20;99.90
53053;DHT22;38934;52.690;6.184;2022-11-20T01:41:37;-3.20;99.90
53053;DHT22;38934;52.690;6.184;2022-11-20T01:44:39;-3.20;99.90
53053;DHT22;38934;52.690;6.184;2022-11-20T01:47:07;-3.10;99.90
53053;DHT22;38934;52.690;6.184;2022-11-20T01:52:04;-3.10;99.90
53053;DHT22;38934;52.690;6.184;2022-11-20T01:54:34;-3.10;99.90
53053;DHT22;38934;52.690;6.184;2022-11-20T01:57:01;-3.10;99.90
53053;DHT22;38934;52.690;6.184;2022-11-20T01:59:27;-3.30;99.90
53053;DHT22;38934;52.690;6.184;2022-11-20T02:01:53;-3.30;99.90
53053;DHT22;38934;52.690;6.184;2022-11-20T02:04:19;-3.30;99.90
53053;DHT22;38934;52.690;6.184;2022-11-20T02:06:53;-3.20;99.90
53053;DHT22;38934;52.690;6.184;2022-11-20T02:09:22;-3.20;99.90
53053;DHT22;38934;52.690;6.184;2022-11-20T02:11:47;-3.20;99.90
53053;DHT22;38934;52.690;6.184;2022-11-20T02:14:13;-3.20;99.90
53053;DHT22;38934;52.690;6.184;2022-11-20T02:16:40;-2.80;99.90
53053;DHT22;38934;52.690;6.184;2022-11-20T02:19:07;-3.10;99.90
53053;DHT22;38934;52.690;6.184;2022-11-20T02:21:37;-3.10;99.90
53053;DHT22;38934;52.690;6.184;2022-11-20T02:26:32;-3.20;99.90
53053;DHT22;38934;52.690;6.184;2022-11-20T02:28:59;-3.20;99.90
53053;DHT22;38934;52.690;6.184;2022-11-20T02:31:25;-3.20;99.90
53053;DHT22;38934;52.690;6.184;2022-11-20T02:33:57;-3.20;99.90
53053;DHT22;38934;52.690;6.184;2022-11-20T02:36:23;-3.20;99.90
53053;DHT22;38934;52.690;6.184;2022-11-20T02:38:49;-3.20;99.90
53053;DHT22;38934;52.690;6.184;2022-11-20T02:41:15;-3.20;99.90
53053;DHT22;38934;52.690;6.184;2022-11-20T02:43:41;-3.20;99.90
53053;DHT22;38934;52.690;6.184;2022-11-20T02:46:07;-3.20;99.90
53053;DHT22;38934;52.690;6.184;2022-11-20T02:48:32;-3.30;99.90
53053;DHT22;38934;52.690;6.184;2022-11-20T02:50:58;-3.30;99.90
53053;DHT22;38934;52.690;6.184;2022-11-20T02:53:23;-3.30;99.90
53053;DHT22;38934;52.690;6.184;2022-11-20T02:55:49;-3.20;99.90
53053;DHT22;38934;52.690;6.184;2022-11-20T02:58:14;-3.20;99.90
53053;DHT22;38934;52.690;6.184;2022-11-20T03:00:40;-3.20;99.90
53053;DHT22;38934;52.690;6.184;2022-11-20T03:03:06;-3.20;99.90
53053;DHT22;38934;52.690;6.184;2022-11-20T03:05:31;-3.20;99.90
53053;DHT22;38934;52.690;6.184;2022-11-20T03:07:57;-3.20;99.90
53053;DHT22;38934;52.690;6.184;2022-11-20T03:10:23;-3.30;99.90
53053;DHT22;38934;52.690;6.184;2022-11-20T03:12:53;-3.30;99.90
53053;DHT22;38934;52.690;6.184;2022-11-20T03:15:19;-3.30;99.90
53053;DHT22;38934;52.690;6.184;2022-11-20T03:17:45;-3.30;99.90
53053;DHT22;38934;52.690;6.184;2022-11-20T03:20:10;-3.30;99.90
53053;DHT22;38934;52.690;6.184;2022-11-20T03:22:36;-3.30;99.90
53053;DHT22;38934;52.690;6.184;2022-11-20T03:25:03;-3.00;99.90
53053;DHT22;38934;52.690;6.184;2022-11-20T03:27:31;-3.30;99.90
53053;DHT22;38934;52.690;6.184;2022-11-20T03:29:57;-2.30;99.90
53053;DHT22;38934;52.690;6.184;2022-11-20T03:32:22;-3.40;99.90
53053;DHT22;38934;52.690;6.184;2022-11-20T03:34:48;-3.40;99.90
53053;DHT22;38934;52.690;6.184;2022-11-20T03:37:13;-3.50;99.90
53053;DHT22;38934;52.690;6.184;2022-11-20T03:39:39;-3.60;99.90
53053;DHT22;38934;52.690;6.184;2022-11-20T03:42:04;-3.60;99.90
53053;DHT22;38934;52.690;6.184;2022-11-20T03:44:50;-3.50;99.90
53053;DHT22;38934;52.690;6.184;2022-11-20T03:47:15;-3.60;99.90
53053;DHT22;38934;52.690;6.184;2022-11-20T03:49:41;-3.70;99.90
53053;DHT22;38934;52.690;6.184;2022-11-20T03:52:06;-3.70;99.90
53053;DHT22;38934;52.690;6.184;2022-11-20T03:54:32;-3.60;99.90
53053;DHT22;38934;52.690;6.184;2022-11-20T03:56:57;-3.50;99.90
53053;DHT22;38934;52.690;6.184;2022-11-20T03:59:23;-3.60;99.90
53053;DHT22;38934;52.690;6.184;2022-11-20T04:01:48;-3.60;99.90
53053;DHT22;38934;52.690;6.184;2022-11-20T04:04:14;-3.60;99.90
53053;DHT22;38934;52.690;6.184;2022-11-20T04:06:40;-3.60;99.90
53053;DHT22;38934;52.690;6.184;2022-11-20T04:09:05;-3.50;99.90
53053;DHT22;38934;52.690;6.184;2022-11-20T04:11:32;-3.50;99.90
53053;DHT22;38934;52.690;6.184;2022-11-20T04:13:59;-3.50;99.90
53053;DHT22;38934;52.690;6.184;2022-11-20T04:16:25;-3.50;99.90
53053;DHT22;38934;52.690;6.184;2022-11-20T04:18:52;-3.50;99.90
53053;DHT22;38934;52.690;6.184;2022-11-20T04:21:18;-3.50;99.90
53053;DHT22;38934;52.690;6.184;2022-11-20T04:23:43;-3.50;99.90
53053;DHT22;38934;52.690;6.184;2022-11-20T04:26:10;-3.60;99.90
53053;DHT22;38934;52.690;6.184;2022-11-20T04:28:35;-3.60;99.90
53053;DHT22;38934;52.690;6.184;2022-11-20T04:31:02;-3.60;99.90
53053;DHT22;38934;52.690;6.184;2022-11-20T04:33:28;-3.70;99.90
53053;DHT22;38934;52.690;6.184;2022-11-20T04:35:53;-3.60;99.90
53053;DHT22;38934;52.690;6.184;2022-11-20T04:38:19;-3.60;99.90
53053;DHT22;38934;52.690;6.184;2022-11-20T04:40:44;-3.70;99.90
53053;DHT22;38934;52.690;6.184;2022-11-20T04:43:10;-3.70;99.90
53053;DHT22;38934;52.690;6.184;2022-11-20T04:45:35;-3.60;99.90
53053;DHT22;38934;52.690;6.184;2022-11-20T04:48:01;-3.40;99.90
53053;DHT22;38934;52.690;6.184;2022-11-20T04:50:26;-3.70;99.90
53053;DHT22;38934;52.690;6.184;2022-11-20T04:52:52;-3.70;99.90
53053;DHT22;38934;52.690;6.184;2022-11-20T04:55:17;-3.70;99.90
53053;DHT22;38934;52.690;6.184;2022-11-20T04:57:43;-3.70;99.90
53053;DHT22;38934;52.690;6.184;2022-11-20T05:00:09;-3.80;99.90
53053;DHT22;38934;52.690;6.184;2022-11-20T05:02:34;-3.80;99.90
53053;DHT22;38934;52.690;6.184;2022-11-20T05:05:00;-3.60;99.90
53053;DHT22;38934;52.690;6.184;2022-11-20T05:07:25;-3.70;99.90
53053;DHT22;38934;52.690;6.184;2022-11-20T05:09:51;-2.10;99.90
53053;DHT22;38934;52.690;6.184;2022-11-20T05:12:16;-3.70;99.90
53053;DHT22;38934;52.690;6.184;2022-11-20T05:14:42;-3.70;99.90
53053;DHT22;38934;52.690;6.184;2022-11-20T05:17:09;-3.80;99.90
53053;DHT22;38934;52.690;6.184;2022-11-20T05:19:35;-3.80;99.90
53053;DHT22;38934;52.690;6.184;2022-11-20T05:22:00;-3.90;99.90
53053;DHT22;38934;52.690;6.184;2022-11-20T05:24:26;-3.90;99.90
53053;DHT22;38934;52.690;6.184;2022-11-20T05:26:51;-3.90;99.90
53053;DHT22;38934;52.690;6.184;2022-11-20T05:29:17;-4.00;99.90
53053;DHT22;38934;52.690;6.184;2022-11-20T05:31:43;-3.90;99.90
53053;DHT22;38934;52.690;6.184;2022-11-20T05:34:08;-3.90;99.90
53053;DHT22;38934;52.690;6.184;2022-11-20T05:36:34;-3.90;99.90
53053;DHT22;38934;52.690;6.184;2022-11-20T05:38:59;-3.50;99.90
53053;DHT22;38934;52.690;6.184;2022-11-20T05:41:25;-3.90;99.90
53053;DHT22;38934;52.690;6.184;2022-11-20T05:43:51;-3.90;99.90
53053;DHT22;38934;52.690;6.184;2022-11-20T05:46:17;-3.90;99.90
53053;DHT22;38934;52.690;6.184;2022-11-20T05:48:43;-3.90;99.90
53053;DHT22;38934;52.690;6.184;2022-11-20T05:51:10;-3.80;99.90
53053;DHT22;38934;52.690;6.184;2022-11-20T05:53:36;-3.80;99.90
53053;DHT22;38934;52.690;6.184;2022-11-20T05:56:05;-3.70;99.90
53053;DHT22;38934;52.690;6.184;2022-11-20T05:58:31;-3.70;99.90
53053;DHT22;38934;52.690;6.184;2022-11-20T06:01:08;-3.80;99.90
53053;DHT22;38934;52.690;6.184;2022-11-20T06:03:34;-3.80;99.90
53053;DHT22;38934;52.690;6.184;2022-11-20T06:06:00;-3.80;99.90
53053;DHT22;38934;52.690;6.184;2022-11-20T06:08:25;-3.80;99.90
53053;DHT22;38934;52.690;6.184;2022-11-20T06:10:51;-3.80;99.90
53053;DHT22;38934;52.690;6.184;2022-11-20T06:13:17;-3.80;99.90
53053;DHT22;38934;52.690;6.184;2022-11-20T06:15:47;-3.80;99.90
53053;DHT22;38934;52.690;6.184;2022-11-20T06:18:13;-3.80;99.90
53053;DHT22;38934;52.690;6.184;2022-11-20T06:20:38;-3.90;99.90
53053;DHT22;38934;52.690;6.184;2022-11-20T06:23:04;-3.10;99.90
53053;DHT22;38934;52.690;6.184;2022-11-20T06:25:29;-4.00;99.90
53053;DHT22;38934;52.690;6.184;2022-11-20T06:27:55;-4.00;99.90
53053;DHT22;38934;52.690;6.184;2022-11-20T06:30:20;-4.00;99.90
53053;DHT22;38934;52.690;6.184;2022-11-20T06:32:46;-4.00;99.90
53053;DHT22;38934;52.690;6.184;2022-11-20T06:35:11;-4.00;99.90
53053;DHT22;38934;52.690;6.184;2022-11-20T06:37:37;-4.00;99.90
53053;DHT22;38934;52.690;6.184;2022-11-20T06:40:02;-4.00;99.90
53053;DHT22;38934;52.690;6.184;2022-11-20T06:42:28;-3.90;99.90
53053;DHT22;38934;52.690;6.184;2022-11-20T06:44:53;-3.90;99.90
53053;DHT22;38934;52.690;6.184;2022-11-20T06:47:19;-3.80;99.90
53053;DHT22;38934;52.690;6.184;2022-11-20T06:49:44;-3.80;99.90
53053;DHT22;38934;52.690;6.184;2022-11-20T06:52:10;-3.70;99.90
53053;DHT22;38934;52.690;6.184;2022-11-20T06:54:36;-3.70;99.90
53053;DHT22;38934;52.690;6.184;2022-11-20T06:57:01;-3.60;99.90
53053;DHT22;38934;52.690;6.184;2022-11-20T06:59:27;-3.50;99.90
53053;DHT22;38934;52.690;6.184;2022-11-20T07:01:52;-3.50;99.90
53053;DHT22;38934;52.690;6.184;2022-11-20T07:04:18;-3.40;99.90
53053;DHT22;38934;52.690;6.184;2022-11-20T07:06:43;-3.40;99.90
53053;DHT22;38934;52.690;6.184;2022-11-20T07:09:09;-3.40;99.90
53053;DHT22;38934;52.690;6.184;2022-11-20T07:11:34;-3.40;99.90
53053;DHT22;38934;52.690;6.184;2022-11-20T07:14:00;-3.40;99.90
53053;DHT22;38934;52.690;6.184;2022-11-20T07:16:25;-3.40;99.90
53053;DHT22;38934;52.690;6.184;2022-11-20T07:18:51;-3.40;99.90
53053;DHT22;38934;52.690;6.184;2022-11-20T07:21:18;-3.30;99.90
53053;DHT22;38934;52.690;6.184;2022-11-20T07:23:43;-3.30;99.90
53053;DHT22;38934;52.690;6.184;2022-11-20T07:26:09;-3.20;99.90
53053;DHT22;38934;52.690;6.184;2022-11-20T07:28:35;-2.60;99.90
53053;DHT22;38934;52.690;6.184;2022-11-20T07:31:01;-3.20;99.90
53053;DHT22;38934;52.690;6.184;2022-11-20T07:33:27;-3.20;99.90
53053;DHT22;38934;52.690;6.184;2022-11-20T07:35:54;-3.20;99.90
53053;DHT22;38934;52.690;6.184;2022-11-20T07:38:20;-3.10;99.90
53053;DHT22;38934;52.690;6.184;2022-11-20T07:40:45;-3.20;99.90
53053;DHT22;38934;52.690;6.184;2022-11-20T07:43:11;-3.20;99.90
53053;DHT22;38934;52.690;6.184;2022-11-20T07:45:36;-3.20;99.90
53053;DHT22;38934;52.690;6.184;2022-11-20T07:48:02;-3.30;99.90
53053;DHT22;38934;52.690;6.184;2022-11-20T07:50:28;-3.30;99.90
53053;DHT22;38934;52.690;6.184;2022-11-20T07:52:59;-3.20;99.90
53053;DHT22;38934;52.690;6.184;2022-11-20T07:55:25;-3.20;99.90
53053;DHT22;38934;52.690;6.184;2022-11-20T07:57:54;-3.10;99.90
53053;DHT22;38934;52.690;6.184;2022-11-20T08:00:19;-3.20;99.90
53053;DHT22;38934;52.690;6.184;2022-11-20T08:02:45;-3.20;99.90
53053;DHT22;38934;52.690;6.184;2022-11-20T08:05:10;-3.10;99.90
53053;DHT22;38934;52.690;6.184;2022-11-20T08:07:39;-3.10;99.90
53053;DHT22;38934;52.690;6.184;2022-11-20T08:10:05;-3.00;99.90
53053;DHT22;38934;52.690;6.184;2022-11-20T08:12:31;-3.00;99.90
53053;DHT22;38934;52.690;6.184;2022-11-20T08:15:15;-3.00;99.90
53053;DHT22;38934;52.690;6.184;2022-11-20T08:17:40;-2.90;99.90
53053;DHT22;38934;52.690;6.184;2022-11-20T08:20:06;-2.90;99.90
53053;DHT22;38934;52.690;6.184;2022-11-20T08:22:32;-2.90;99.90
53053;DHT22;38934;52.690;6.184;2022-11-20T08:24:57;-2.90;99.90
53053;DHT22;38934;52.690;6.184;2022-11-20T08:27:23;-2.90;99.90
53053;DHT22;38934;52.690;6.184;2022-11-20T08:29:48;-2.90;99.90
53053;DHT22;38934;52.690;6.184;2022-11-20T08:32:14;-2.80;99.90
53053;DHT22;38934;52.690;6.184;2022-11-20T08:34:39;-2.80;99.90
53053;DHT22;38934;52.690;6.184;2022-11-20T08:37:05;-2.80;99.90
53053;DHT22;38934;52.690;6.184;2022-11-20T08:39:30;-2.80;99.90
53053;DHT22;38934;52.690;6.184;2022-11-20T08:41:56;-2.80;99.90
53053;DHT22;38934;52.690;6.184;2022-11-20T08:44:22;-2.70;99.90
53053;DHT22;38934;52.690;6.184;2022-11-20T08:46:47;-2.70;99.90
53053;DHT22;38934;52.690;6.184;2022-11-20T08:49:13;-2.60;99.90
53053;DHT22;38934;52.690;6.184;2022-11-20T08:51:39;-2.60;99.90
53053;DHT22;38934;52.690;6.184;2022-11-20T08:54:05;-2.60;99.90
53053;DHT22;38934;52.690;6.184;2022-11-20T08:56:31;-2.50;99.90
53053;DHT22;38934;52.690;6.184;2022-11-20T08:58:57;-2.50;99.90
53053;DHT22;38934;52.690;6.184;2022-11-20T09:01:24;-2.50;99.90
53053;DHT22;38934;52.690;6.184;2022-11-20T09:03:50;-2.50;99.90
53053;DHT22;38934;52.690;6.184;2022-11-20T09:06:15;-2.40;99.90
53053;DHT22;38934;52.690;6.184;2022-11-20T09:08:41;-2.40;99.90
53053;DHT22;38934;52.690;6.184;2022-11-20T09:11:07;-2.30;99.90
53053;DHT22;38934;52.690;6.184;2022-11-20T09:13:33;-2.30;99.90
53053;DHT22;38934;52.690;6.184;2022-11-20T09:16:03;-2.30;99.90
53053;DHT22;38934;52.690;6.184;2022-11-20T09:18:30;-2.20;99.90
53053;DHT22;38934;52.690;6.184;2022-11-20T09:20:57;-2.10;99.90
53053;DHT22;38934;52.690;6.184;2022-11-20T09:23:23;-2.00;99.90
53053;DHT22;38934;52.690;6.184;2022-11-20T09:25:49;-2.00;99.90
53053;DHT22;38934;52.690;6.184;2022-11-20T09:28:15;-1.90;99.90
53053;DHT22;38934;52.690;6.184;2022-11-20T09:30:41;-1.90;99.90
53053;DHT22;38934;52.690;6.184;2022-11-20T09:33:07;-1.80;99.90
53053;DHT22;38934;52.690;6.184;2022-11-20T09:35:33;-1.80;99.90
53053;DHT22;38934;52.690;6.184;2022-11-20T09:37:58;-1.70;99.90
53053;DHT22;38934;52.690;6.184;2022-11-20T09:40:25;-1.70;99.90
53053;DHT22;38934;52.690;6.184;2022-11-20T09:48:48;-1.70;99.90
53053;DHT22;38934;52.690;6.184;2022-11-20T09:55:56;-0.80;99.90
53053;DHT22;38934;52.690;6.184;2022-11-20T09:58:28;-1.50;99.90
53053;DHT22;38934;52.690;6.184;2022-11-20T10:00:56;-1.50;99.90
53053;DHT22;38934;52.690;6.184;2022-11-20T10:03:26;-1.40;99.90
53053;DHT22;38934;52.690;6.184;2022-11-20T10:05:55;-1.40;99.90
53053;DHT22;38934;52.690;6.184;2022-11-20T10:08:24;-1.40;99.90
53053;DHT22;38934;52.690;6.184;2022-11-20T10:11:00;-1.30;99.90
53053;DHT22;38934;52.690;6.184;2022-11-20T10:16:26;-1.20;99.90
53053;DHT22;38934;52.690;6.184;2022-11-20T10:19:07;-1.10;99.90
53053;DHT22;38934;52.690;6.184;2022-11-20T10:26:40;-1.00;99.90
53053;DHT22;38934;52.690;6.184;2022-11-20T10:29:11;-1.00;99.90
53053;DHT22;38934;52.690;6.184;2022-11-20T10:31:39;-0.90;99.90
53053;DHT22;38934;52.690;6.184;2022-11-20T10:34:07;-0.80;99.90
53053;DHT22;38934;52.690;6.184;2022-11-20T10:36:43;-0.70;99.90
53053;DHT22;38934;52.690;6.184;2022-11-20T10:39:21;-0.70;99.90
53053;DHT22;38934;52.690;6.184;2022-11-20T10:41:49;-0.70;99.90
53053;DHT22;38934;52.690;6.184;2022-11-20T10:44:24;-0.60;99.90
53053;DHT22;38934;52.690;6.184;2022-11-20T10:47:14;-0.60;99.90
53053;DHT22;38934;52.690;6.184;2022-11-20T10:49:40;-0.50;99.90
53053;DHT22;38934;52.690;6.184;2022-11-20T10:52:13;-0.40;99.90
53053;DHT22;38934;52.690;6.184;2022-11-20T10:54:47;-0.40;99.90
53053;DHT22;38934;52.690;6.184;2022-11-20T11:00:03;-0.20;99.90
53053;DHT22;38934;52.690;6.184;2022-11-20T11:02:34;-0.10;99.90
53053;DHT22;38934;52.690;6.184;2022-11-20T11:05:04;0.00;99.90
53053;DHT22;38934;52.690;6.184;2022-11-20T11:07:35;0.00;99.90
53053;DHT22;38934;52.690;6.184;2022-11-20T11:10:01;0.10;99.90
53053;DHT22;38934;52.690;6.184;2022-11-20T11:12:28;0.20;99.90
53053;DHT22;38934;52.690;6.184;2022-11-20T11:14:55;0.20;99.90
53053;DHT22;38934;52.690;6.184;2022-11-20T11:17:25;0.30;99.90
53053;DHT22;38934;52.690;6.184;2022-11-20T11:20:02;0.30;99.90
53053;DHT22;38934;52.690;6.184;2022-11-20T11:22:29;0.40;99.90
53053;DHT22;38934;52.690;6.184;2022-11-20T11:24:55;0.40;99.90
53053;DHT22;38934;52.690;6.184;2022-11-20T11:27:20;0.50;99.90
53053;DHT22;38934;52.690;6.184;2022-11-20T11:29:46;0.60;99.90
53053;DHT22;38934;52.690;6.184;2022-11-20T11:32:13;0.70;99.90
53053;DHT22;38934;52.690;6.184;2022-11-20T11:34:39;0.80;99.90
53053;DHT22;38934;52.690;6.184;2022-11-20T11:37:05;0.90;99.90
53053;DHT22;38934;52.690;6.184;2022-11-20T11:39:36;1.00;99.90
53053;DHT22;38934;52.690;6.184;2022-11-20T11:42:04;1.00;99.90
53053;DHT22;38934;52.690;6.184;2022-11-20T11:44:31;1.10;99.90
53053;DHT22;38934;52.690;6.184;2022-11-20T11:47:25;1.20;99.90
53053;DHT22;38934;52.690;6.184;2022-11-20T11:52:42;1.30;99.90
53053;DHT22;38934;52.690;6.184;2022-11-20T11:55:09;1.30;99.90
53053;DHT22;38934;52.690;6.184;2022-11-20T11:57:47;1.20;99.90
53053;DHT22;38934;52.690;6.184;2022-11-20T12:00:21;1.20;99.90
53053;DHT22;38934;52.690;6.184;2022-11-20T12:05:24;1.10;99.90
53053;DHT22;38934;52.690;6.184;2022-11-20T12:07:59;1.00;99.90
53053;DHT22;38934;52.690;6.184;2022-11-20T12:15:50;1.30;99.90
53053;DHT22;38934;52.690;6.184;2022-11-20T12:18:20;1.40;99.90
53053;DHT22;38934;52.690;6.184;2022-11-20T12:20:48;1.40;99.90
53053;DHT22;38934;52.690;6.184;2022-11-20T12:23:54;1.40;99.90
53053;DHT22;38934;52.690;6.184;2022-11-20T12:26:20;1.50;99.90
53053;DHT22;38934;52.690;6.184;2022-11-20T12:29:01;1.50;99.90
53053;DHT22;38934;52.690;6.184;2022-11-20T12:31:40;1.60;99.90
53053;DHT22;38934;52.690;6.184;2022-11-20T12:34:24;1.60;99.90
53053;DHT22;38934;52.690;6.184;2022-11-20T12:37:02;1.60;99.90
53053;DHT22;38934;52.690;6.184;2022-11-20T12:42:19;1.70;99.90
53053;DHT22;38934;52.690;6.184;2022-11-20T12:45:10;1.70;99.90
53053;DHT22;38934;52.690;6.184;2022-11-20T12:52:39;1.60;99.90
53053;DHT22;38934;52.690;6.184;2022-11-20T12:55:13;1.70;99.90
53053;DHT22;38934;52.690;6.184;2022-11-20T12:57:50;1.70;99.90
53053;DHT22;38934;52.690;6.184;2022-11-20T13:00:22;1.60;99.90
53053;DHT22;38934;52.690;6.184;2022-11-20T13:07:48;1.70;99.90
53053;DHT22;38934;52.690;6.184;2022-11-20T13:10:21;1.70;99.90
53053;DHT22;38934;52.690;6.184;2022-11-20T13:12:55;1.70;99.90
53053;DHT22;38934;52.690;6.184;2022-11-20T13:18:08;1.70;99.90
53053;DHT22;38934;52.690;6.184;2022-11-20T13:20:40;1.70;99.90
53053;DHT22;38934;52.690;6.184;2022-11-20T13:23:06;1.80;99.90
53053;DHT22;38934;52.690;6.184;2022-11-20T13:25:32;1.80;99.90
53053;DHT22;38934;52.690;6.184;2022-11-20T13:27:59;1.80;99.90
53053;DHT22;38934;52.690;6.184;2022-11-20T13:30:26;1.80;99.90
53053;DHT22;38934;52.690;6.184;2022-11-20T13:32:52;1.80;99.90
53053;DHT22;38934;52.690;6.184;2022-11-20T13:37:59;1.80;99.90
53053;DHT22;38934;52.690;6.184;2022-11-20T13:40:25;1.80;99.90
53053;DHT22;38934;52.690;6.184;2022-11-20T13:42:55;1.80;99.90
53053;DHT22;38934;52.690;6.184;2022-11-20T13:45:25;1.80;99.90
53053;DHT22;38934;52.690;6.184;2022-11-20T13:47:51;1.80;99.90
53053;DHT22;38934;52.690;6.184;2022-11-20T13:50:17;1.80;99.90
53053;DHT22;38934;52.690;6.184;2022-11-20T13:52:51;1.70;99.90
53053;DHT22;38934;52.690;6.184;2022-11-20T13:55:32;1.70;99.90
53053;DHT22;38934;52.690;6.184;2022-11-20T14:00:30;1.70;99.90
53053;DHT22;38934;52.690;6.184;2022-11-20T14:05:45;1.80;99.90
53053;DHT22;38934;52.690;6.184;2022-11-20T14:08:13;1.70;99.90
53053;DHT22;38934;52.690;6.184;2022-11-20T14:10:42;1.70;99.90
53053;DHT22;38934;52.690;6.184;2022-11-20T14:13:26;1.70;99.90
53053;DHT22;38934;52.690;6.184;2022-11-20T14:15:56;1.70;99.90
53053;DHT22;38934;52.690;6.184;2022-11-20T14:18:21;1.70;99.90
53053;DHT22;38934;52.690;6.184;2022-11-20T14:20:47;1.70;99.90
53053;DHT22;38934;52.690;6.184;2022-11-20T14:23:22;1.70;99.90
53053;DHT22;38934;52.690;6.184;2022-11-20T14:25:50;1.60;99.90
53053;DHT22;38934;52.690;6.184;2022-11-20T14:28:29;1.70;99.90
53053;DHT22;38934;52.690;6.184;2022-11-20T14:30:55;1.70;99.90
53053;DHT22;38934;52.690;6.184;2022-11-20T14:33:21;1.60;99.90
53053;DHT22;38934;52.690;6.184;2022-11-20T14:35:53;1.60;99.90
53053;DHT22;38934;52.690;6.184;2022-11-20T14:38:21;1.60;99.90
53053;DHT22;38934;52.690;6.184;2022-11-20T14:40:47;1.60;99.90
53053;DHT22;38934;52.690;6.184;2022-11-20T14:43:23;1.60;99.90
53053;DHT22;38934;52.690;6.184;2022-11-20T14:45:56;1.50;99.90
53053;DHT22;38934;52.690;6.184;2022-11-20T14:48:24;1.60;99.90
53053;DHT22;38934;52.690;6.184;2022-11-20T14:50:51;1.50;99.90
53053;DHT22;38934;52.690;6.184;2022-11-20T14:53:22;1.50;99.90
53053;DHT22;38934;52.690;6.184;2022-11-20T14:55:53;1.50;99.90
53053;DHT22;38934;52.690;6.184;2022-11-20T14:58:20;1.50;99.90
53053;DHT22;38934;52.690;6.184;2022-11-20T15:01:00;1.50;99.90
53053;DHT22;38934;52.690;6.184;2022-11-20T15:04:00;1.50;99.90
53053;DHT22;38934;52.690;6.184;2022-11-20T15:06:25;1.40;99.90
53053;DHT22;38934;52.690;6.184;2022-11-20T15:08:51;1.40;99.90
53053;DHT22;38934;52.690;6.184;2022-11-20T15:11:17;1.40;99.90
53053;DHT22;38934;52.690;6.184;2022-11-20T15:13:43;1.40;99.90
53053;DHT22;38934;52.690;6.184;2022-11-20T15:16:14;1.40;99.90
53053;DHT22;38934;52.690;6.184;2022-11-20T15:18:42;1.40;99.90
53053;DHT22;38934;52.690;6.184;2022-11-20T15:21:11;1.40;99.90
53053;DHT22;38934;52.690;6.184;2022-11-20T15:23:37;1.40;99.90
53053;DHT22;38934;52.690;6.184;2022-11-20T15:26:10;1.40;99.90
53053;DHT22;38934;52.690;6.184;2022-11-20T15:28:37;1.40;99.90
53053;DHT22;38934;52.690;6.184;2022-11-20T15:31:04;1.40;99.90
53053;DHT22;38934;52.690;6.184;2022-11-20T15:33:30;1.40;99.90
53053;DHT22;38934;52.690;6.184;2022-11-20T15:35:56;1.50;99.90
53053;DHT22;38934;52.690;6.184;2022-11-20T15:38:22;1.50;99.90
53053;DHT22;38934;52.690;6.184;2022-11-20T15:40:47;1.50;99.90
53053;DHT22;38934;52.690;6.184;2022-11-20T15:43:13;1.50;99.90
53053;DHT22;38934;52.690;6.184;2022-11-20T15:45:40;1.50;99.90
53053;DHT22;38934;52.690;6.184;2022-11-20T15:48:11;1.50;99.90
53053;DHT22;38934;52.690;6.184;2022-11-20T15:50:38;1.50;99.90
53053;DHT22;38934;52.690;6.184;2022-11-20T15:53:04;1.50;99.90
53053;DHT22;38934;52.690;6.184;2022-11-20T15:55:30;1.50;99.90
53053;DHT22;38934;52.690;6.184;2022-11-20T15:57:55;1.50;99.90
53053;DHT22;38934;52.690;6.184;2022-11-20T16:00:21;1.50;99.90
53053;DHT22;38934;52.690;6.184;2022-11-20T16:02:46;1.60;99.90
53053;DHT22;38934;52.690;6.184;2022-11-20T16:05:12;1.60;99.90
53053;DHT22;38934;52.690;6.184;2022-11-20T16:07:38;1.50;99.90
53053;DHT22;38934;52.690;6.184;2022-11-20T16:10:04;1.60;99.90
53053;DHT22;38934;52.690;6.184;2022-11-20T16:12:29;1.60;99.90
53053;DHT22;38934;52.690;6.184;2022-11-20T16:15:14;1.60;99.90
53053;DHT22;38934;52.690;6.184;2022-11-20T16:17:58;1.60;99.90
53053;DHT22;38934;52.690;6.184;2022-11-20T16:20:23;1.50;99.90
53053;DHT22;38934;52.690;6.184;2022-11-20T16:22:49;1.50;99.90
53053;DHT22;38934;52.690;6.184;2022-11-20T16:25:14;1.50;99.90
53053;DHT22;38934;52.690;6.184;2022-11-20T16:27:40;1.60;99.90
53053;DHT22;38934;52.690;6.184;2022-11-20T16:30:05;1.50;99.90
53053;DHT22;38934;52.690;6.184;2022-11-20T16:32:32;1.60;99.90
53053;DHT22;38934;52.690;6.184;2022-11-20T16:34:57;1.60;99.90
53053;DHT22;38934;52.690;6.184;2022-11-20T16:37:22;1.50;99.90
53053;DHT22;38934;52.690;6.184;2022-11-20T16:39:48;1.50;99.90